BWI weather

Baltimore/Washington International Thurgood Marshall Airport
Baltimore, Maryland, United States

Public forecast

Using degrees Fahrenheit for public forecast. Weather courtesy of forecast.io.

Current aviation weather report (METAR) for Baltimore/Washington International Thurgood Marshall Airport

Retrieved 2019/10/22 23:54 UTC (1 hour ago):

KBWI 222354Z 00000KT 10SM FEW014 BKN070 BKN090 16/15 A2981 RMK AO2 RAE00 SLP094 P0001 60065 T01560150 10172 20156 58001

Aviation forecast (TAF) for Baltimore/Washington International Thurgood Marshall Airport

Retrieved 2019-10-23 00:39 UTC (19 minutes ago):

TAF KBWI 222336Z 2300/2406 VRB03KT P6SM FEW015 BKN070 FM230500 29005KT P6SM SCT150 FM231400 28011G18KT P6SM SKC FM232300 VRB03KT P6SM SKC